createdAt,value
2019-03-17T00:00:24.097Z,1.73
2019-03-17T00:02:52.909Z,1.20
2019-03-17T00:05:21.384Z,1.50
2019-03-17T00:07:49.809Z,1.70
2019-03-17T00:10:18.244Z,1.83
2019-03-17T00:12:46.660Z,1.70
2019-03-17T00:15:15.207Z,1.90
2019-03-17T00:17:43.709Z,1.40
2019-03-17T00:20:12.295Z,1.60
2019-03-17T00:22:40.719Z,1.47
2019-03-17T00:25:10.239Z,1.73
2019-03-17T00:27:39.229Z,1.60
2019-03-17T00:30:12.141Z,1.60
2019-03-17T00:32:40.561Z,1.43
2019-03-17T00:35:09.652Z,1.70
2019-03-17T00:37:38.099Z,1.80
2019-03-17T00:40:09.358Z,1.77
2019-03-17T00:42:37.953Z,1.60
2019-03-17T00:45:11.390Z,1.20
2019-03-17T00:47:39.414Z,1.03
2019-03-17T00:50:11.785Z,1.20
2019-03-17T00:52:40.201Z,1.00
2019-03-17T00:55:08.681Z,1.07
2019-03-17T00:57:37.378Z,1.27
2019-03-17T01:00:14.675Z,1.43
2019-03-17T01:02:43.118Z,1.30
2019-03-17T01:05:11.539Z,1.30
2019-03-17T01:07:40.491Z,1.50
2019-03-17T01:10:09.793Z,1.63
2019-03-17T01:12:38.223Z,1.30
2019-03-17T01:15:07.670Z,1.30
2019-03-17T01:17:36.117Z,1.50
2019-03-17T01:20:07.173Z,1.40
2019-03-17T01:22:35.588Z,1.40
2019-03-17T01:25:06.477Z,1.20
2019-03-17T01:27:34.931Z,1.20
2019-03-17T01:30:04.985Z,1.50
2019-03-17T01:32:33.410Z,1.40
2019-03-17T01:35:09.125Z,1.20
2019-03-17T01:37:32.407Z,1.30
2019-03-17T01:40:00.822Z,1.40
2019-03-17T01:42:29.491Z,1.17
2019-03-17T01:44:57.906Z,1.20
2019-03-17T01:47:27.762Z,1.47
2019-03-17T01:49:56.366Z,1.60
2019-03-17T01:52:25.187Z,1.30
2019-03-17T01:54:54.344Z,1.50
2019-03-17T01:57:22.834Z,1.53
2019-03-17T01:59:51.291Z,1.50
2019-03-17T02:02:19.741Z,1.50
2019-03-17T02:04:48.255Z,1.53
2019-03-17T02:07:16.803Z,1.10
2019-03-17T02:09:45.403Z,1.23
2019-03-17T02:12:13.960Z,1.30
2019-03-17T02:14:42.733Z,1.67
2019-03-17T02:17:10.823Z,1.33
2019-03-17T02:19:39.386Z,1.30
2019-03-17T02:22:07.890Z,1.30
2019-03-17T02:24:36.362Z,1.43
2019-03-17T02:27:04.869Z,1.37
2019-03-17T02:29:33.364Z,1.30
2019-03-17T02:32:01.441Z,1.40
2019-03-17T02:34:29.890Z,1.50
2019-03-17T02:36:58.349Z,1.23
2019-03-17T02:39:26.845Z,1.30
2019-03-17T02:41:55.478Z,1.40
2019-03-17T02:44:23.971Z,1.40
2019-03-17T02:46:52.373Z,1.37
2019-03-17T02:49:20.805Z,1.53
2019-03-17T02:51:49.291Z,1.57
2019-03-17T02:54:17.825Z,1.50
2019-03-17T02:56:45.910Z,1.67
2019-03-17T02:59:14.355Z,1.37
2019-03-17T03:01:43.061Z,1.67
2019-03-17T03:04:11.683Z,1.60
2019-03-17T03:06:40.106Z,1.80
2019-03-17T03:09:08.829Z,1.63
2019-03-17T03:11:37.313Z,1.70
2019-03-17T03:14:06.202Z,1.53
2019-03-17T03:16:34.875Z,1.90
2019-03-17T03:19:03.346Z,1.43
2019-03-17T03:21:31.806Z,1.80
2019-03-17T03:24:00.182Z,2.00
2019-03-17T03:26:28.274Z,1.90
2019-03-17T03:28:56.701Z,1.73
2019-03-17T03:31:25.128Z,1.60
2019-03-17T03:33:53.218Z,1.60
2019-03-17T03:36:21.642Z,1.60
2019-03-17T03:38:50.075Z,1.93
2019-03-17T03:41:18.750Z,1.27
2019-03-17T03:43:47.326Z,1.60
2019-03-17T03:46:15.873Z,1.90
2019-03-17T03:48:44.675Z,1.63
2019-03-17T03:51:13.154Z,1.73
2019-03-17T03:53:41.582Z,1.53
2019-03-17T03:56:09.842Z,1.60
2019-03-17T03:58:38.319Z,1.40
2019-03-17T04:01:06.732Z,1.57
2019-03-17T04:03:35.156Z,1.90
2019-03-17T04:06:03.778Z,1.83
2019-03-17T04:08:32.427Z,1.53
2019-03-17T04:11:01.023Z,1.73
2019-03-17T04:13:29.483Z,1.60
2019-03-17T04:15:57.981Z,1.60
2019-03-17T04:18:26.800Z,1.80
2019-03-17T04:20:55.593Z,2.07
2019-03-17T04:23:23.673Z,2.17
2019-03-17T04:25:52.142Z,1.90
2019-03-17T04:28:20.252Z,1.40
2019-03-17T04:30:48.674Z,1.77
2019-03-17T04:33:17.089Z,1.50
2019-03-17T04:35:45.956Z,1.50
2019-03-17T04:38:14.480Z,1.70
2019-03-17T04:40:43.087Z,1.87
2019-03-17T04:43:11.768Z,1.90
2019-03-17T04:45:40.188Z,1.57
2019-03-17T04:48:08.782Z,1.60
2019-03-17T04:50:37.213Z,1.60
2019-03-17T04:53:05.633Z,2.30
2019-03-17T04:55:34.311Z,1.80
2019-03-17T04:58:02.776Z,1.57
2019-03-17T05:00:31.075Z,2.00
2019-03-17T05:02:59.858Z,1.70
2019-03-17T05:05:28.287Z,1.70
2019-03-17T05:08:16.018Z,1.83
2019-03-17T05:10:44.445Z,1.80
2019-03-17T05:13:12.856Z,1.70
2019-03-17T05:15:40.948Z,1.63
2019-03-17T05:18:09.031Z,1.50
2019-03-17T05:20:37.116Z,1.67
2019-03-17T05:23:06.015Z,1.40
2019-03-17T05:25:34.276Z,2.00
2019-03-17T05:28:02.971Z,1.80
2019-03-17T05:30:31.062Z,1.93
2019-03-17T05:32:59.468Z,1.70
2019-03-17T05:35:46.897Z,1.60
2019-03-17T05:38:15.317Z,1.50
2019-03-17T05:40:43.735Z,1.57
2019-03-17T05:43:12.143Z,1.80
2019-03-17T05:45:40.557Z,1.67
2019-03-17T05:48:08.985Z,1.70
2019-03-17T05:50:37.653Z,1.60
2019-03-17T05:53:06.085Z,1.50
2019-03-17T05:55:34.492Z,1.93
2019-03-17T05:58:02.904Z,1.93
2019-03-17T06:00:31.317Z,1.40
2019-03-17T06:02:59.736Z,1.47
2019-03-17T06:05:28.152Z,1.57
2019-03-17T06:07:56.646Z,1.30
2019-03-17T06:10:25.048Z,0.93
2019-03-17T06:12:53.745Z,1.20
2019-03-17T06:15:22.164Z,0.90
2019-03-17T06:17:50.568Z,1.30
2019-03-17T06:20:18.978Z,1.20
2019-03-17T06:22:47.400Z,1.10
2019-03-17T06:25:15.811Z,1.40
2019-03-17T06:27:44.225Z,1.20
2019-03-17T06:30:13.568Z,1.20
2019-03-17T06:32:41.987Z,1.07
2019-03-17T06:35:10.392Z,1.10
2019-03-17T06:37:38.805Z,1.10
2019-03-17T06:40:12.281Z,1.10
2019-03-17T06:42:40.700Z,1.00
2019-03-17T06:45:10.859Z,1.23
2019-03-17T06:47:39.276Z,1.00
2019-03-17T06:50:12.497Z,1.13
2019-03-17T06:52:40.917Z,1.00
2019-03-17T06:55:11.656Z,0.97
2019-03-17T06:57:40.084Z,1.17
2019-03-17T07:00:10.925Z,1.17
2019-03-17T07:02:39.413Z,1.30
2019-03-17T07:05:08.867Z,1.20
2019-03-17T07:07:44.108Z,1.10
2019-03-17T07:10:09.453Z,1.20
2019-03-17T07:12:37.868Z,1.17
2019-03-17T07:15:10.920Z,1.30
2019-03-17T07:17:39.333Z,1.30
2019-03-17T07:20:10.480Z,1.20
2019-03-17T07:22:38.901Z,1.30
2019-03-17T07:25:08.755Z,1.10
2019-03-17T07:27:37.260Z,1.00
2019-03-17T07:30:08.744Z,1.00
2019-03-17T07:32:37.169Z,1.10
2019-03-17T07:35:06.415Z,1.10
2019-03-17T07:37:34.839Z,0.97
2019-03-17T07:40:04.685Z,1.20
2019-03-17T07:42:33.102Z,1.20
2019-03-17T07:45:01.513Z,1.10
2019-03-17T07:47:29.937Z,1.10
2019-03-17T07:49:58.358Z,0.90
2019-03-17T07:52:26.771Z,1.10
2019-03-17T07:54:55.181Z,1.30
2019-03-17T07:57:23.596Z,1.10
2019-03-17T07:59:52.007Z,1.07
2019-03-17T08:02:20.437Z,1.00
2019-03-17T08:04:48.845Z,1.43
2019-03-17T08:07:19.321Z,1.10
2019-03-17T08:09:47.403Z,1.00
2019-03-17T08:12:15.813Z,1.10
2019-03-17T08:14:44.577Z,1.20
2019-03-17T08:17:12.993Z,1.20
2019-03-17T08:19:41.410Z,1.03
2019-03-17T08:22:09.826Z,1.50
2019-03-17T08:24:38.329Z,1.33
2019-03-17T08:27:06.743Z,1.00
2019-03-17T08:29:35.188Z,1.30
2019-03-17T08:32:03.606Z,1.40
2019-03-17T08:34:32.032Z,1.33
2019-03-17T08:37:00.445Z,1.50
2019-03-17T08:39:28.882Z,1.30
2019-03-17T08:41:57.277Z,1.17
2019-03-17T08:44:26.053Z,1.20
2019-03-17T08:46:54.457Z,1.23
2019-03-17T08:49:22.868Z,1.40
2019-03-17T08:51:51.293Z,1.20
2019-03-17T08:54:19.710Z,1.33
2019-03-17T08:56:48.125Z,1.40
2019-03-17T08:59:16.572Z,1.70
2019-03-17T09:01:47.459Z,1.33
2019-03-17T09:04:15.176Z,1.20
2019-03-17T09:06:43.588Z,1.50
2019-03-17T09:09:12.329Z,1.23
2019-03-17T09:11:40.743Z,1.40
2019-03-17T09:14:09.171Z,1.40
2019-03-17T09:16:37.576Z,1.40
2019-03-17T09:19:06.313Z,1.30
2019-03-17T09:21:34.725Z,1.50
2019-03-17T09:24:03.160Z,1.27
2019-03-17T09:26:31.563Z,1.53
2019-03-17T09:28:59.981Z,1.43
2019-03-17T09:31:28.401Z,1.90
2019-03-17T09:33:56.815Z,1.90
2019-03-17T09:36:25.228Z,1.60
2019-03-17T09:38:53.659Z,2.03
2019-03-17T09:41:22.069Z,2.33
2019-03-17T09:43:50.815Z,2.00
2019-03-17T09:46:19.224Z,1.53
2019-03-17T09:48:47.645Z,1.60
2019-03-17T09:51:16.060Z,2.47
2019-03-17T09:53:44.485Z,1.90
2019-03-17T09:56:12.897Z,2.00
2019-03-17T09:58:41.316Z,2.20
2019-03-17T10:01:09.721Z,2.43
2019-03-17T10:03:38.137Z,2.20
2019-03-17T10:06:06.561Z,2.23
2019-03-17T10:08:34.968Z,2.60
2019-03-17T10:11:03.400Z,2.10
2019-03-17T10:13:31.812Z,1.90
2019-03-17T10:16:00.229Z,2.57
2019-03-17T10:18:28.641Z,2.03
2019-03-17T10:20:57.062Z,2.20
2019-03-17T10:23:25.476Z,1.90
2019-03-17T10:25:53.977Z,2.20
2019-03-17T10:28:22.392Z,2.10
2019-03-17T10:30:51.136Z,2.03
2019-03-17T10:33:19.555Z,2.53
2019-03-17T10:35:47.973Z,2.20
2019-03-17T10:38:16.691Z,2.70
2019-03-17T10:40:45.119Z,2.47
2019-03-17T10:43:13.525Z,2.10
2019-03-17T10:45:42.227Z,1.97
2019-03-17T10:48:10.647Z,1.97
2019-03-17T10:50:49.091Z,2.40
2019-03-17T10:53:09.518Z,2.53
2019-03-17T10:55:37.953Z,3.07
2019-03-17T10:58:06.410Z,2.47
2019-03-17T11:00:34.877Z,2.30
2019-03-17T11:03:03.288Z,2.37
2019-03-17T11:05:31.718Z,1.90
2019-03-17T11:08:00.125Z,2.73
2019-03-17T11:10:28.548Z,2.33
2019-03-17T11:12:56.957Z,3.00
2019-03-17T11:15:25.743Z,2.00
2019-03-17T11:17:54.157Z,2.33
2019-03-17T11:20:22.581Z,2.30
2019-03-17T11:22:50.994Z,2.50
2019-03-17T11:25:20.491Z,2.00
2019-03-17T11:27:48.908Z,2.30
2019-03-17T11:30:18.270Z,2.10
2019-03-17T11:32:47.056Z,2.10
2019-03-17T11:35:15.849Z,2.30
2019-03-17T11:37:44.331Z,2.53
2019-03-17T11:40:20.264Z,2.30
2019-03-17T11:42:50.054Z,2.53
2019-03-17T11:45:19.012Z,2.00
2019-03-17T11:47:47.792Z,2.43
2019-03-17T11:50:18.576Z,2.30
2019-03-17T11:52:47.141Z,2.40
2019-03-17T11:55:15.620Z,2.53
2019-03-17T11:57:44.118Z,2.57
2019-03-17T12:00:16.668Z,2.17
2019-03-17T12:02:45.088Z,2.50
2019-03-17T12:05:13.581Z,2.17
2019-03-17T12:07:42.068Z,2.23
2019-03-17T12:10:15.885Z,2.50
2019-03-17T12:12:44.308Z,3.47
2019-03-17T12:15:15.727Z,2.47
2019-03-17T12:17:44.222Z,1.73
2019-03-17T12:20:14.278Z,2.53
2019-03-17T12:22:42.714Z,1.90
2019-03-17T12:25:13.933Z,2.53
2019-03-17T12:27:42.344Z,2.40
2019-03-17T12:30:23.916Z,2.60
2019-03-17T12:32:53.173Z,2.90
2019-03-17T12:35:21.657Z,2.10
2019-03-17T12:37:50.162Z,2.47
2019-03-17T12:40:18.942Z,2.37
2019-03-17T12:42:47.428Z,2.50
2019-03-17T12:45:15.913Z,2.53
2019-03-17T12:47:44.332Z,2.03
2019-03-17T12:50:26.905Z,2.70
2019-03-17T12:52:55.328Z,2.27
2019-03-17T12:55:23.736Z,1.83
2019-03-17T12:57:52.155Z,2.50
2019-03-17T13:00:25.206Z,2.27
2019-03-17T13:02:53.625Z,2.37
2019-03-17T13:05:22.048Z,2.10
2019-03-17T13:07:50.453Z,2.30
2019-03-17T13:10:22.250Z,2.30
2019-03-17T13:12:50.746Z,2.40
2019-03-17T13:15:19.162Z,2.27
2019-03-17T13:17:47.576Z,2.07
2019-03-17T13:20:21.758Z,2.77
2019-03-17T13:22:50.184Z,2.40
2019-03-17T13:25:18.594Z,1.70
2019-03-17T13:27:47.020Z,2.00
2019-03-17T13:30:16.368Z,1.93
2019-03-17T13:32:44.861Z,1.90
2019-03-17T13:35:13.350Z,1.87
2019-03-17T13:37:41.775Z,2.13
2019-03-17T13:40:28.964Z,0.90
2019-03-17T13:42:50.737Z,1.00
2019-03-17T13:45:19.141Z,0.50
2019-03-17T13:47:47.582Z,0.57
2019-03-17T13:50:21.068Z,0.60
2019-03-17T13:52:49.488Z,0.50
2019-03-17T13:55:17.891Z,0.33
2019-03-17T13:58:11.435Z,0.50
2019-03-17T14:00:39.842Z,0.40
2019-03-17T14:03:08.267Z,0.30
2019-03-17T14:05:36.675Z,0.40
2019-03-17T14:08:05.096Z,0.40
2019-03-17T14:10:41.086Z,0.40
2019-03-17T14:13:03.722Z,0.47
2019-03-17T14:15:32.133Z,0.40
2019-03-17T14:18:00.562Z,0.37
2019-03-17T14:20:28.956Z,0.40
2019-03-17T14:22:57.377Z,0.47
2019-03-17T14:25:31.344Z,0.40
2019-03-17T14:28:00.142Z,0.40
2019-03-17T14:30:28.560Z,0.30
2019-03-17T14:32:56.995Z,0.30
2019-03-17T14:35:44.745Z,0.47
2019-03-17T14:38:13.161Z,0.30
2019-03-17T14:40:52.881Z,0.30
2019-03-17T14:43:11.722Z,0.50
2019-03-17T14:45:40.129Z,0.40
2019-03-17T14:48:08.547Z,0.40
2019-03-17T14:50:36.959Z,0.30
2019-03-17T14:53:05.381Z,0.30
2019-03-17T14:55:33.805Z,0.40
2019-03-17T14:58:02.220Z,0.47
2019-03-17T15:00:30.644Z,0.40
2019-03-17T15:02:59.343Z,0.40
2019-03-17T15:05:27.769Z,0.40
2019-03-17T15:07:56.214Z,0.60
2019-03-17T15:10:25.760Z,0.43
2019-03-17T15:12:54.176Z,0.60
2019-03-17T15:15:23.103Z,0.50
2019-03-17T15:17:51.538Z,0.70
2019-03-17T15:20:22.618Z,0.50
2019-03-17T15:22:51.025Z,0.50
2019-03-17T15:25:19.449Z,0.70
2019-03-17T15:27:48.146Z,0.60
2019-03-17T15:30:22.322Z,0.63
2019-03-17T15:32:51.085Z,0.60
2019-03-17T15:35:19.944Z,0.60
2019-03-17T15:37:48.431Z,0.47
2019-03-17T15:40:18.857Z,0.40
2019-03-17T15:42:47.337Z,0.60
2019-03-17T15:45:39.518Z,0.60
2019-03-17T15:48:07.606Z,0.40
2019-03-17T15:50:35.687Z,0.50
2019-03-17T15:53:03.844Z,0.60
2019-03-17T15:55:32.290Z,0.60
2019-03-17T15:58:00.369Z,0.50
2019-03-17T16:00:28.794Z,0.60
2019-03-17T16:02:57.540Z,0.70
2019-03-17T16:05:26.327Z,0.80
2019-03-17T16:07:54.719Z,0.73
2019-03-17T16:10:25.052Z,0.70
2019-03-17T16:12:53.465Z,0.70
2019-03-17T16:15:21.881Z,0.67
2019-03-17T16:17:50.288Z,0.67
2019-03-17T16:20:24.865Z,0.60
2019-03-17T16:22:53.346Z,0.70
2019-03-17T16:25:28.937Z,0.80
2019-03-17T16:27:57.013Z,0.90
2019-03-17T16:30:46.299Z,0.50
2019-03-17T16:33:14.708Z,0.67
2019-03-17T16:35:43.205Z,0.70
2019-03-17T16:38:11.609Z,0.80
2019-03-17T16:40:44.181Z,0.60
2019-03-17T16:43:12.594Z,0.80
2019-03-17T16:45:41.004Z,0.90
2019-03-17T16:48:09.422Z,0.70
2019-03-17T16:50:37.828Z,1.03
2019-03-17T16:53:06.235Z,0.80
2019-03-17T16:55:34.650Z,0.80
2019-03-17T16:58:03.061Z,0.80
2019-03-17T17:00:31.508Z,0.70
2019-03-17T17:03:00.093Z,0.70
2019-03-17T17:05:28.706Z,0.70
2019-03-17T17:07:57.135Z,0.80
2019-03-17T17:10:27.561Z,1.00
2019-03-17T17:12:56.043Z,0.90
2019-03-17T17:15:29.521Z,1.00
2019-03-17T17:17:58.194Z,0.80
2019-03-17T17:20:31.632Z,0.93
2019-03-17T17:23:00.039Z,0.97
2019-03-17T17:25:28.492Z,0.90
2019-03-17T17:27:56.898Z,0.83
2019-03-17T17:30:25.635Z,0.70
2019-03-17T17:32:54.045Z,0.60
2019-03-17T17:35:22.713Z,0.60
2019-03-17T17:37:51.133Z,0.83
2019-03-17T17:40:44.497Z,0.63
2019-03-17T17:43:12.912Z,0.80
2019-03-17T17:45:41.345Z,0.60
2019-03-17T17:48:09.749Z,0.60
2019-03-17T17:50:38.172Z,0.60
2019-03-17T17:53:06.584Z,0.70
2019-03-17T17:55:35.030Z,0.80
2019-03-17T17:58:03.422Z,0.70
2019-03-17T18:00:33.481Z,0.70
2019-03-17T18:03:02.108Z,0.63
2019-03-17T18:05:30.601Z,0.80
2019-03-17T18:07:59.040Z,0.70
2019-03-17T18:10:36.473Z,1.07
2019-03-17T18:13:04.936Z,0.70
2019-03-17T18:15:33.892Z,0.70
2019-03-17T18:18:02.377Z,1.13
2019-03-17T18:20:30.810Z,0.80
2019-03-17T18:22:59.225Z,0.93
2019-03-17T18:25:27.976Z,1.00
2019-03-17T18:27:56.377Z,0.87
2019-03-17T18:30:26.331Z,0.97
2019-03-17T18:32:54.748Z,1.00
2019-03-17T18:35:23.188Z,1.20
2019-03-17T18:37:51.719Z,1.10
2019-03-17T18:40:23.137Z,1.30
2019-03-17T18:42:51.569Z,1.40
2019-03-17T18:45:23.054Z,1.10
2019-03-17T18:47:51.473Z,1.27
2019-03-17T18:50:21.181Z,1.20
2019-03-17T18:52:49.742Z,1.50
2019-03-17T18:55:18.325Z,1.17
2019-03-17T18:57:46.811Z,1.17
2019-03-17T19:00:19.293Z,1.17
2019-03-17T19:02:48.082Z,1.47
2019-03-17T19:05:19.870Z,1.30
2019-03-17T19:07:48.002Z,1.10
2019-03-17T19:10:20.542Z,1.20
2019-03-17T19:12:49.016Z,1.87
2019-03-17T19:15:20.500Z,1.10
2019-03-17T19:17:48.912Z,1.43
2019-03-17T19:20:19.532Z,1.50
2019-03-17T19:22:48.044Z,1.20
2019-03-17T19:25:17.885Z,1.20
2019-03-17T19:27:46.323Z,1.23
2019-03-17T19:30:22.767Z,1.27
2019-03-17T19:32:51.190Z,1.30
2019-03-17T19:35:19.740Z,1.40
2019-03-17T19:37:48.165Z,1.40
2019-03-17T19:40:20.370Z,1.50
2019-03-17T19:42:57.917Z,1.30
2019-03-17T19:45:18.937Z,1.40
2019-03-17T19:47:47.416Z,1.40
2019-03-17T19:50:16.897Z,1.13
2019-03-17T19:52:45.364Z,1.20
2019-03-17T19:55:14.236Z,1.67
2019-03-17T19:57:42.720Z,1.50
2019-03-17T20:00:15.701Z,1.27
2019-03-17T20:02:47.165Z,1.43
2019-03-17T20:05:14.497Z,1.40
2019-03-17T20:07:43.049Z,1.60
2019-03-17T20:10:14.556Z,1.20
2019-03-17T20:12:42.975Z,1.30
2019-03-17T20:15:11.381Z,1.43
2019-03-17T20:17:39.804Z,1.50
2019-03-17T20:20:11.356Z,1.37
2019-03-17T20:22:39.782Z,1.30
2019-03-17T20:25:08.468Z,1.40
2019-03-17T20:27:36.996Z,1.43
2019-03-17T20:30:13.589Z,1.30
2019-03-17T20:32:42.012Z,1.17
2019-03-17T20:35:11.893Z,1.27
2019-03-17T20:37:40.357Z,1.40
2019-03-17T20:40:16.819Z,1.67
2019-03-17T20:42:45.312Z,1.30
2019-03-17T20:45:15.152Z,1.30
2019-03-17T20:47:43.644Z,1.30
2019-03-17T20:50:14.265Z,1.30
2019-03-17T20:52:42.689Z,1.23
2019-03-17T20:55:11.837Z,1.10
2019-03-17T20:57:40.274Z,1.13
2019-03-17T21:00:11.861Z,1.27
2019-03-17T21:02:40.301Z,1.50
2019-03-17T21:05:10.356Z,1.40
2019-03-17T21:07:39.060Z,1.17
2019-03-17T21:10:09.996Z,1.17
2019-03-17T21:12:38.429Z,1.30
2019-03-17T21:15:09.772Z,1.30
2019-03-17T21:17:38.242Z,0.83
2019-03-17T21:20:17.961Z,1.20
2019-03-17T21:22:46.377Z,1.30
2019-03-17T21:25:14.792Z,1.20
2019-03-17T21:27:43.551Z,0.90
2019-03-17T21:30:22.573Z,1.10
2019-03-17T21:32:50.985Z,0.80
2019-03-17T21:35:19.405Z,1.10
2019-03-17T21:37:47.812Z,0.93
2019-03-17T21:40:16.280Z,0.97
2019-03-17T21:42:44.724Z,0.90
2019-03-17T21:45:14.094Z,1.10
2019-03-17T21:47:42.488Z,1.20
2019-03-17T21:50:15.513Z,0.90
2019-03-17T21:52:43.938Z,1.00
2019-03-17T21:55:13.298Z,0.90
2019-03-17T21:57:41.710Z,0.80
2019-03-17T22:00:15.274Z,1.03
2019-03-17T22:02:43.697Z,0.83
2019-03-17T22:05:13.265Z,1.10
2019-03-17T22:07:49.592Z,1.13
2019-03-17T22:10:22.128Z,1.00
2019-03-17T22:12:50.541Z,0.80
2019-03-17T22:15:19.322Z,1.67
2019-03-17T22:17:47.737Z,0.90
2019-03-17T22:20:16.962Z,0.87
2019-03-17T22:22:45.380Z,1.00
2019-03-17T22:25:17.036Z,1.10
2019-03-17T22:27:45.449Z,1.10
2019-03-17T22:30:17.967Z,1.00
2019-03-17T22:32:46.370Z,1.00
2019-03-17T22:35:14.783Z,1.20
2019-03-17T22:37:43.301Z,0.80
2019-03-17T22:40:15.925Z,1.03
2019-03-17T22:42:44.337Z,0.70
2019-03-17T22:45:13.901Z,1.10
2019-03-17T22:47:42.388Z,1.23
2019-03-17T22:50:13.021Z,1.10
2019-03-17T22:52:41.438Z,1.13
2019-03-17T22:55:10.807Z,1.00
2019-03-17T22:57:39.453Z,1.00
2019-03-17T23:00:35.798Z,0.80
2019-03-17T23:03:05.216Z,1.00
2019-03-17T23:05:33.632Z,1.10
2019-03-17T23:08:02.042Z,1.03
2019-03-17T23:10:30.477Z,1.10
2019-03-17T23:12:58.955Z,1.30
2019-03-17T23:15:27.381Z,1.10
2019-03-17T23:17:55.868Z,1.10
2019-03-17T23:20:24.283Z,0.90
2019-03-17T23:22:52.700Z,1.00
2019-03-17T23:25:21.128Z,1.23
2019-03-17T23:27:50.702Z,1.10
2019-03-17T23:30:21.127Z,1.27
2019-03-17T23:32:49.805Z,1.00
2019-03-17T23:35:18.401Z,1.07
2019-03-17T23:37:46.881Z,0.93
2019-03-17T23:40:16.744Z,1.17
2019-03-17T23:42:45.217Z,1.10
2019-03-17T23:45:13.983Z,1.10
2019-03-17T23:47:42.528Z,0.83
2019-03-17T23:50:13.153Z,1.00
2019-03-17T23:52:41.741Z,1.30
2019-03-17T23:55:16.081Z,1.10
2019-03-17T23:57:44.510Z,1.03
